createdAt,value
2018-04-28T00:00:08.480Z,931.88
2018-04-28T00:00:21.023Z,931.84
2018-04-28T00:00:34.056Z,931.85
2018-04-28T00:00:46.236Z,931.85
2018-04-28T00:00:59.219Z,931.88
2018-04-28T00:01:11.292Z,931.83
2018-04-28T00:01:23.372Z,931.89
2018-04-28T00:01:35.474Z,931.85
2018-04-28T00:01:48.495Z,931.85
2018-04-28T00:02:01.023Z,931.88
2018-04-28T00:02:14.051Z,931.87
2018-04-28T00:02:26.604Z,931.87
2018-04-28T00:02:39.200Z,931.85
2018-04-28T00:02:52.239Z,931.84
2018-04-28T00:03:04.820Z,931.81
2018-04-28T00:03:17.807Z,931.86
2018-04-28T00:03:30.346Z,931.88
2018-04-28T00:03:43.340Z,931.86
2018-04-28T00:03:56.331Z,931.87
2018-04-28T00:04:09.877Z,931.87
2018-04-28T00:04:21.509Z,931.83
2018-04-28T00:04:34.576Z,931.84
2018-04-28T00:04:47.111Z,931.88
2018-04-28T00:04:58.731Z,931.85
2018-04-28T00:05:10.865Z,931.85
2018-04-28T00:05:23.886Z,931.87
2018-04-28T00:05:36.869Z,931.87
2018-04-28T00:05:49.479Z,931.92
2018-04-28T00:06:02.008Z,931.92
2018-04-28T00:06:14.584Z,931.89
2018-04-28T00:06:27.157Z,931.92
2018-04-28T00:06:40.215Z,931.85
2018-04-28T00:06:53.193Z,931.88
2018-04-28T00:07:06.198Z,931.89
2018-04-28T00:07:18.750Z,931.87
2018-04-28T00:07:31.792Z,931.91
2018-04-28T00:07:44.309Z,931.88
2018-04-28T00:07:57.196Z,931.86
2018-04-28T00:08:09.945Z,931.88
2018-04-28T00:08:22.952Z,931.91
2018-04-28T00:08:36.016Z,931.92
2018-04-28T00:08:48.585Z,931.91
2018-04-28T00:09:01.580Z,931.91
2018-04-28T00:09:14.645Z,931.91
2018-04-28T00:09:27.184Z,931.91
2018-04-28T00:09:39.719Z,931.94
2018-04-28T00:09:52.279Z,931.92
2018-04-28T00:10:05.313Z,931.87
2018-04-28T00:10:16.937Z,931.92
2018-04-28T00:10:29.496Z,931.9
2018-04-28T00:10:42.019Z,931.91
2018-04-28T00:10:54.124Z,931.88
2018-04-28T00:11:06.224Z,931.9
2018-04-28T00:11:19.261Z,931.88
2018-04-28T00:11:32.288Z,931.91
2018-04-28T00:11:45.294Z,931.94
2018-04-28T00:11:58.349Z,931.89
2018-04-28T00:12:10.940Z,931.92
2018-04-28T00:12:23.503Z,931.94
2018-04-28T00:12:36.034Z,931.94
2018-04-28T00:12:49.032Z,931.91
2018-04-28T00:13:02.060Z,931.87
2018-04-28T00:13:14.604Z,931.88
2018-04-28T00:13:26.703Z,931.88
2018-04-28T00:13:39.760Z,931.87
2018-04-28T00:13:50.909Z,931.9
2018-04-28T00:14:03.932Z,931.91
2018-04-28T00:14:17.044Z,931.93
2018-04-28T00:14:29.614Z,931.92
2018-04-28T00:14:42.206Z,931.93
2018-04-28T00:14:55.234Z,931.94
2018-04-28T00:15:08.287Z,931.89
2018-04-28T00:15:20.369Z,931.85
2018-04-28T00:15:32.885Z,931.91
2018-04-28T00:15:45.877Z,931.86
2018-04-28T00:15:57.958Z,931.86
2018-04-28T00:16:10.514Z,931.89
2018-04-28T00:16:23.041Z,931.87
2018-04-28T00:16:36.076Z,931.87
2018-04-28T00:16:48.756Z,931.87
2018-04-28T00:17:01.833Z,931.86
2018-04-28T00:17:14.405Z,931.92
2018-04-28T00:17:27.452Z,931.9
2018-04-28T00:17:39.512Z,931.86
2018-04-28T00:17:52.037Z,931.83
2018-04-28T00:18:05.045Z,931.86
2018-04-28T00:18:17.575Z,931.83
2018-04-28T00:18:29.174Z,931.86
2018-04-28T00:18:42.164Z,931.83
2018-04-28T00:18:55.203Z,931.83
2018-04-28T00:19:07.747Z,931.86
2018-04-28T00:19:20.968Z,931.85
2018-04-28T00:19:33.078Z,931.88
2018-04-28T00:19:46.104Z,931.86
2018-04-28T00:19:58.651Z,931.86
2018-04-28T00:20:10.719Z,931.85
2018-04-28T00:20:23.737Z,931.87
2018-04-28T00:20:35.824Z,931.89
2018-04-28T00:20:48.380Z,931.88
2018-04-28T00:21:00.509Z,931.86
2018-04-28T00:21:13.104Z,931.89
2018-04-28T00:21:26.080Z,931.85
2018-04-28T00:21:39.079Z,931.85
2018-04-28T00:21:51.122Z,931.86
2018-04-28T00:22:04.183Z,931.87
2018-04-28T00:22:16.769Z,931.88
2018-04-28T00:22:29.801Z,931.85
2018-04-28T00:22:42.882Z,931.87
2018-04-28T00:22:55.910Z,931.87
2018-04-28T00:23:08.017Z,931.86
2018-04-28T00:23:21.057Z,931.9
2018-04-28T00:23:34.099Z,931.88
2018-04-28T00:23:47.151Z,931.9
2018-04-28T00:24:00.189Z,931.9
2018-04-28T00:24:13.242Z,931.9
2018-04-28T00:24:26.250Z,931.87
2018-04-28T00:24:39.274Z,931.91
2018-04-28T00:24:52.280Z,931.87
2018-04-28T00:25:04.802Z,931.9
2018-04-28T00:25:17.821Z,931.88
2018-04-28T00:25:30.376Z,931.85
2018-04-28T00:25:43.411Z,931.89
2018-04-28T00:25:55.084Z,931.91
2018-04-28T00:26:07.630Z,931.89
2018-04-28T00:26:20.199Z,931.87
2018-04-28T00:26:33.270Z,931.85
2018-04-28T00:26:46.292Z,931.85
2018-04-28T00:26:57.913Z,931.85
2018-04-28T00:27:10.001Z,931.85
2018-04-28T00:27:23.053Z,931.83
2018-04-28T00:27:35.613Z,931.85
2018-04-28T00:27:48.185Z,931.85
2018-04-28T00:28:00.268Z,931.79
2018-04-28T00:28:13.300Z,931.83
2018-04-28T00:28:25.397Z,931.88
2018-04-28T00:28:37.947Z,931.83
2018-04-28T00:28:50.496Z,931.81
2018-04-28T00:29:02.099Z,931.81
2018-04-28T00:29:15.219Z,931.86
2018-04-28T00:29:28.230Z,931.83
2018-04-28T00:29:41.271Z,931.85
2018-04-28T00:29:54.276Z,931.84
2018-04-28T00:30:06.872Z,931.78
2018-04-28T00:30:19.921Z,931.82
2018-04-28T00:30:32.964Z,931.83
2018-04-28T00:30:46.004Z,931.84
2018-04-28T00:30:59.055Z,931.83
2018-04-28T00:31:11.588Z,931.8
2018-04-28T00:31:24.624Z,931.81
2018-04-28T00:31:36.674Z,931.83
2018-04-28T00:31:48.782Z,931.84
2018-04-28T00:32:01.816Z,931.84
2018-04-28T00:32:14.365Z,931.88
2018-04-28T00:32:26.938Z,931.85
2018-04-28T00:32:39.510Z,931.84
2018-04-28T00:32:52.574Z,931.86
2018-04-28T00:33:05.186Z,931.86
2018-04-28T00:33:18.211Z,931.88
2018-04-28T00:33:31.249Z,931.88
2018-04-28T00:33:44.239Z,931.86
2018-04-28T00:33:56.790Z,931.89
2018-04-28T00:34:08.872Z,931.86
2018-04-28T00:34:22.387Z,931.86
2018-04-28T00:34:34.487Z,931.86
2018-04-28T00:34:47.511Z,931.85
2018-04-28T00:35:00.110Z,931.91
2018-04-28T00:35:12.219Z,931.89
2018-04-28T00:35:24.269Z,931.89
2018-04-28T00:35:36.318Z,931.89
2018-04-28T00:35:49.309Z,931.88
2018-04-28T00:36:01.873Z,931.88
2018-04-28T00:36:13.968Z,931.88
2018-04-28T00:36:27.043Z,931.89
2018-04-28T00:36:39.600Z,931.86
2018-04-28T00:36:52.132Z,931.88
2018-04-28T00:37:04.713Z,931.86
2018-04-28T00:37:17.790Z,931.89
2018-04-28T00:37:30.832Z,931.86
2018-04-28T00:37:43.821Z,931.86
2018-04-28T00:37:56.868Z,931.88
2018-04-28T00:38:09.432Z,931.9
2018-04-28T00:38:21.984Z,931.87
2018-04-28T00:38:35.037Z,931.9
2018-04-28T00:38:48.091Z,931.86
2018-04-28T00:39:00.634Z,931.89
2018-04-28T00:39:13.231Z,931.87
2018-04-28T00:39:26.264Z,931.88
2018-04-28T00:39:39.274Z,931.91
2018-04-28T00:39:51.827Z,931.88
2018-04-28T00:40:04.903Z,931.87
2018-04-28T00:40:17.462Z,931.89
2018-04-28T00:40:30.449Z,931.89
2018-04-28T00:40:43.461Z,931.91
2018-04-28T00:40:56.064Z,931.91
2018-04-28T00:41:09.071Z,931.89
2018-04-28T00:41:21.125Z,931.91
2018-04-28T00:41:33.211Z,931.89
2018-04-28T00:41:46.265Z,931.92
2018-04-28T00:41:59.278Z,931.9
2018-04-28T00:42:11.850Z,931.88
2018-04-28T00:42:24.882Z,931.84
2018-04-28T00:42:37.479Z,931.87
2018-04-28T00:42:51.901Z,931.88
2018-04-28T00:43:04.470Z,931.89
2018-04-28T00:43:17.029Z,931.89
2018-04-28T00:43:30.046Z,931.86
2018-04-28T00:43:43.062Z,931.88
2018-04-28T00:43:55.580Z,931.85
2018-04-28T00:44:07.708Z,931.86
2018-04-28T00:44:20.396Z,931.82
2018-04-28T00:44:32.993Z,931.89
2018-04-28T00:44:46.017Z,931.89
2018-04-28T00:44:59.034Z,931.89
2018-04-28T00:45:11.591Z,931.85
2018-04-28T00:45:24.618Z,931.87
2018-04-28T00:45:37.598Z,931.87
2018-04-28T00:45:50.619Z,931.86
2018-04-28T00:46:03.201Z,931.87
2018-04-28T00:46:16.243Z,931.88
2018-04-28T00:46:28.800Z,931.86
2018-04-28T00:46:41.803Z,931.89
2018-04-28T00:46:54.324Z,931.86
2018-04-28T00:47:06.418Z,931.87
2018-04-28T00:47:18.505Z,931.85
2018-04-28T00:47:31.556Z,931.87
2018-04-28T00:47:44.581Z,931.86
2018-04-28T00:47:57.623Z,931.86
2018-04-28T00:48:10.194Z,931.87
2018-04-28T00:48:23.218Z,931.87
2018-04-28T00:48:35.760Z,931.87
2018-04-28T00:48:48.826Z,931.85
2018-04-28T00:49:00.475Z,931.88
2018-04-28T00:49:13.489Z,931.94
2018-04-28T00:49:26.273Z,931.87
2018-04-28T00:49:38.811Z,931.9
2018-04-28T00:49:51.835Z,931.93
2018-04-28T00:50:04.411Z,931.86
2018-04-28T00:50:17.430Z,931.94
2018-04-28T00:50:30.447Z,931.9
2018-04-28T00:50:43.036Z,931.88
2018-04-28T00:50:55.601Z,931.87
2018-04-28T00:51:07.691Z,931.86
2018-04-28T00:51:19.975Z,931.86
2018-04-28T00:51:32.616Z,931.9
2018-04-28T00:51:45.192Z,931.86
2018-04-28T00:51:58.250Z,931.9
2018-04-28T00:52:09.443Z,931.91
2018-04-28T00:52:21.550Z,931.92
2018-04-28T00:52:34.105Z,931.9
2018-04-28T00:52:46.661Z,931.94
2018-04-28T00:52:59.727Z,931.92
2018-04-28T00:53:12.747Z,931.93
2018-04-28T00:53:24.857Z,931.98
2018-04-28T00:53:37.381Z,931.96
2018-04-28T00:53:50.409Z,931.94
2018-04-28T00:54:03.400Z,931.91
2018-04-28T00:54:15.981Z,931.95
2018-04-28T00:54:28.561Z,931.92
2018-04-28T00:54:41.592Z,931.92
2018-04-28T00:54:54.650Z,931.94
2018-04-28T00:55:07.199Z,931.93
2018-04-28T00:55:20.211Z,931.92
2018-04-28T00:55:33.193Z,931.91
2018-04-28T00:55:45.737Z,931.91
2018-04-28T00:55:58.317Z,931.91
2018-04-28T00:56:11.336Z,931.94
2018-04-28T00:56:23.395Z,931.92
2018-04-28T00:56:35.957Z,931.95
2018-04-28T00:56:48.965Z,931.93
2018-04-28T00:57:01.497Z,931.94
2018-04-28T00:57:14.054Z,931.92
2018-04-28T00:57:27.067Z,931.92
2018-04-28T00:57:39.149Z,931.95
2018-04-28T00:57:52.167Z,931.95
2018-04-28T00:58:04.702Z,931.97
2018-04-28T00:58:17.737Z,931.95
2018-04-28T00:58:30.295Z,931.94
2018-04-28T00:58:43.327Z,931.98
2018-04-28T00:58:56.356Z,932.01
2018-04-28T00:59:07.962Z,931.98
2018-04-28T00:59:20.481Z,931.98
2018-04-28T00:59:32.675Z,931.98
2018-04-28T00:59:45.216Z,931.98
2018-04-28T00:59:58.230Z,932.04
2018-04-28T01:00:10.298Z,932.02
2018-04-28T01:00:23.323Z,932.02
2018-04-28T01:00:36.355Z,932.02
2018-04-28T01:00:49.341Z,932
2018-04-28T01:01:01.884Z,931.95
2018-04-28T01:01:14.417Z,931.96
2018-04-28T01:01:27.510Z,931.99
2018-04-28T01:01:40.117Z,931.97
2018-04-28T01:01:52.680Z,932.02
2018-04-28T01:02:05.209Z,932
2018-04-28T01:02:17.774Z,932
2018-04-28T01:02:30.785Z,932.03
2018-04-28T01:02:43.378Z,932.04
2018-04-28T01:02:56.384Z,932.02
2018-04-28T01:03:09.392Z,932.06
2018-04-28T01:03:21.981Z,932.07
2018-04-28T01:03:34.582Z,932.04
2018-04-28T01:03:47.163Z,932.05
2018-04-28T01:04:00.202Z,932.03
2018-04-28T01:04:13.213Z,932.1
2018-04-28T01:04:26.295Z,932.05
2018-04-28T01:04:39.673Z,932.03
2018-04-28T01:04:52.247Z,932.06
2018-04-28T01:05:04.811Z,932.04
2018-04-28T01:05:17.822Z,932.04
2018-04-28T01:05:30.387Z,932.05
2018-04-28T01:05:42.956Z,932.02
2018-04-28T01:05:55.964Z,932.05
2018-04-28T01:06:08.065Z,931.99
2018-04-28T01:06:20.662Z,932
2018-04-28T01:06:33.689Z,932.01
2018-04-28T01:06:46.739Z,931.98
2018-04-28T01:06:59.726Z,932.03
2018-04-28T01:07:12.742Z,931.97
2018-04-28T01:07:25.301Z,931.99
2018-04-28T01:07:37.846Z,932.04
2018-04-28T01:07:49.947Z,931.99
2018-04-28T01:08:02.534Z,931.98
2018-04-28T01:08:15.596Z,931.99
2018-04-28T01:08:28.138Z,931.99
2018-04-28T01:08:41.156Z,932.01
2018-04-28T01:08:54.175Z,932.01
2018-04-28T01:09:06.757Z,931.99
2018-04-28T01:09:19.808Z,932.02
2018-04-28T01:09:32.365Z,931.99
2018-04-28T01:09:45.358Z,932.03
2018-04-28T01:09:58.399Z,932.02
2018-04-28T01:10:11.470Z,932.01
2018-04-28T01:10:23.996Z,931.98
2018-04-28T01:10:37.000Z,932.04
2018-04-28T01:10:50.017Z,932.01
2018-04-28T01:11:02.563Z,932.03
2018-04-28T01:11:15.135Z,932.03
2018-04-28T01:11:28.164Z,932.05
2018-04-28T01:11:40.722Z,932.02
2018-04-28T01:11:52.835Z,932.07
2018-04-28T01:12:05.916Z,932.02
2018-04-28T01:12:18.947Z,932.03
2018-04-28T01:12:31.035Z,932.05
2018-04-28T01:12:43.115Z,932.03
2018-04-28T01:12:55.697Z,932.04
2018-04-28T01:13:08.705Z,931.99
2018-04-28T01:13:21.261Z,932.01
2018-04-28T01:13:33.796Z,931.98
2018-04-28T01:13:46.832Z,932
2018-04-28T01:13:59.431Z,932.01
2018-04-28T01:14:11.032Z,932.03
2018-04-28T01:14:23.084Z,932
2018-04-28T01:14:35.710Z,932.03
2018-04-28T01:14:47.786Z,932.03
2018-04-28T01:15:00.359Z,932.04
2018-04-28T01:15:12.447Z,932.01
2018-04-28T01:15:25.449Z,931.99
2018-04-28T01:15:38.011Z,932.03
2018-04-28T01:15:50.576Z,931.99
2018-04-28T01:16:03.140Z,932.01
2018-04-28T01:16:15.703Z,932.02
2018-04-28T01:16:28.291Z,932.02
2018-04-28T01:16:40.818Z,931.98
2018-04-28T01:16:53.356Z,931.97
2018-04-28T01:17:05.920Z,931.99
2018-04-28T01:17:18.479Z,932.02
2018-04-28T01:17:30.555Z,932.01
2018-04-28T01:17:43.628Z,931.99
2018-04-28T01:17:56.200Z,931.98
2018-04-28T01:18:08.736Z,932
2018-04-28T01:18:21.317Z,931.98
2018-04-28T01:18:33.907Z,932.01
2018-04-28T01:18:46.997Z,931.98
2018-04-28T01:19:00.051Z,931.96
2018-04-28T01:19:13.046Z,931.96
2018-04-28T01:19:25.207Z,931.96
2018-04-28T01:19:37.892Z,931.99
2018-04-28T01:19:50.909Z,931.96
2018-04-28T01:20:03.916Z,931.96
2018-04-28T01:20:16.478Z,931.98
2018-04-28T01:20:29.003Z,931.98
2018-04-28T01:20:42.055Z,931.99
2018-04-28T01:20:54.601Z,931.95
2018-04-28T01:21:06.660Z,932
2018-04-28T01:21:19.693Z,931.97
2018-04-28T01:21:32.701Z,931.99
2018-04-28T01:21:45.369Z,931.95
2018-04-28T01:21:57.918Z,931.96
2018-04-28T01:22:10.966Z,931.98
2018-04-28T01:22:23.500Z,931.99
2018-04-28T01:22:36.522Z,932
2018-04-28T01:22:49.106Z,932
2018-04-28T01:23:01.208Z,932.02
2018-04-28T01:23:13.754Z,931.99
2018-04-28T01:23:26.313Z,932.04
2018-04-28T01:23:38.401Z,932.04
2018-04-28T01:23:50.971Z,932.01
2018-04-28T01:24:04.038Z,932.02
2018-04-28T01:24:17.049Z,932.03
2018-04-28T01:24:29.648Z,931.99
2018-04-28T01:24:42.228Z,932.01
2018-04-28T01:24:54.786Z,931.98
2018-04-28T01:25:07.378Z,932.04
2018-04-28T01:25:19.901Z,932.03
2018-04-28T01:25:32.429Z,931.98
2018-04-28T01:25:44.506Z,932.02
2018-04-28T01:25:57.590Z,932.03
2018-04-28T01:26:10.127Z,932.02
2018-04-28T01:26:22.211Z,932
2018-04-28T01:26:35.224Z,932.02
2018-04-28T01:26:47.780Z,932.01
2018-04-28T01:26:59.397Z,932.01
2018-04-28T01:27:11.498Z,932.02
2018-04-28T01:27:24.051Z,932.04
2018-04-28T01:27:37.085Z,932.05
2018-04-28T01:27:50.117Z,932.03
2018-04-28T01:28:02.221Z,932.01
2018-04-28T01:28:14.278Z,932.03
2018-04-28T01:28:27.264Z,931.99
2018-04-28T01:28:38.893Z,932.01
2018-04-28T01:28:51.497Z,931.99
2018-04-28T01:29:04.554Z,931.98
2018-04-28T01:29:16.249Z,932.02
2018-04-28T01:29:28.830Z,932.01
2018-04-28T01:29:41.991Z,931.98
2018-04-28T01:29:54.144Z,931.99
2018-04-28T01:30:07.520Z,931.98
2018-04-28T01:30:20.536Z,931.96
2018-04-28T01:30:32.634Z,931.98
2018-04-28T01:30:45.160Z,932.01
2018-04-28T01:30:58.187Z,931.96
2018-04-28T01:31:10.251Z,932.02
2018-04-28T01:31:22.776Z,932.02
2018-04-28T01:31:35.338Z,932
2018-04-28T01:31:47.865Z,932.02
2018-04-28T01:32:00.051Z,932.02
2018-04-28T01:32:12.081Z,932.03
2018-04-28T01:32:24.641Z,932.03
2018-04-28T01:32:37.158Z,932.02
2018-04-28T01:32:50.219Z,932
2018-04-28T01:33:03.273Z,932.02
2018-04-28T01:33:15.858Z,931.98
2018-04-28T01:33:27.997Z,932.01
2018-04-28T01:33:41.017Z,932.02
2018-04-28T01:33:54.059Z,932.04
2018-04-28T01:34:06.625Z,932.02
2018-04-28T01:34:19.176Z,932.03
2018-04-28T01:34:31.716Z,932.02
2018-04-28T01:34:45.681Z,932.05
2018-04-28T01:34:58.708Z,932.04
2018-04-28T01:35:11.282Z,932.02
2018-04-28T01:35:24.333Z,932
2018-04-28T01:35:37.375Z,932.02
2018-04-28T01:35:50.385Z,932.03
2018-04-28T01:36:02.949Z,932.04
2018-04-28T01:36:15.483Z,932.01
2018-04-28T01:36:28.011Z,932.03
2018-04-28T01:36:41.038Z,932.02
2018-04-28T01:36:53.591Z,932.02
2018-04-28T01:37:06.173Z,932.01
2018-04-28T01:37:18.270Z,932.02
2018-04-28T01:37:30.867Z,932.01
2018-04-28T01:37:43.887Z,932.03
2018-04-28T01:37:56.444Z,932.02
2018-04-28T01:38:08.503Z,932.01
2018-04-28T01:38:21.556Z,932.02
2018-04-28T01:38:34.067Z,932.02
2018-04-28T01:38:47.110Z,932.02
2018-04-28T01:38:59.288Z,932.02
2018-04-28T01:39:11.862Z,932
2018-04-28T01:39:24.433Z,932.03
2018-04-28T01:39:36.074Z,931.97
2018-04-28T01:39:49.107Z,931.99
2018-04-28T01:40:01.213Z,931.99
2018-04-28T01:40:13.285Z,932.02
2018-04-28T01:40:26.319Z,932
2018-04-28T01:40:38.864Z,932
2018-04-28T01:40:51.867Z,931.98
2018-04-28T01:41:03.961Z,932.01
2018-04-28T01:41:15.570Z,931.97
2018-04-28T01:41:28.132Z,931.99
2018-04-28T01:41:40.212Z,931.99
2018-04-28T01:41:52.335Z,931.96
2018-04-28T01:42:05.380Z,932
2018-04-28T01:42:17.951Z,932
2018-04-28T01:42:30.987Z,932.01
2018-04-28T01:42:44.009Z,931.98
2018-04-28T01:42:56.554Z,932.01
2018-04-28T01:43:09.603Z,931.99
2018-04-28T01:43:22.587Z,932.04
2018-04-28T01:43:35.568Z,932.02
2018-04-28T01:43:48.119Z,932.04
2018-04-28T01:44:00.662Z,932.04
2018-04-28T01:44:12.779Z,932.01
2018-04-28T01:44:24.407Z,932
2018-04-28T01:44:36.470Z,932.05
2018-04-28T01:44:49.564Z,932.01
2018-04-28T01:45:02.153Z,932.01
2018-04-28T01:45:14.709Z,932.06
2018-04-28T01:45:27.282Z,932
2018-04-28T01:45:40.296Z,932.02
2018-04-28T01:45:53.312Z,932.02
2018-04-28T01:46:05.936Z,932.08
2018-04-28T01:46:18.424Z,932.03
2018-04-28T01:46:30.980Z,932.05
2018-04-28T01:46:43.990Z,932.01
2018-04-28T01:46:57.027Z,932.02
2018-04-28T01:47:09.123Z,932.01
2018-04-28T01:47:22.166Z,932.03
2018-04-28T01:47:34.783Z,931.98
2018-04-28T01:47:47.813Z,931.96
2018-04-28T01:48:00.835Z,931.98
2018-04-28T01:48:14.124Z,932.02
2018-04-28T01:48:26.692Z,932.01
2018-04-28T01:48:39.209Z,931.99
2018-04-28T01:48:52.263Z,932
2018-04-28T01:49:04.820Z,931.97
2018-04-28T01:49:16.933Z,931.97
2018-04-28T01:49:29.904Z,931.97
2018-04-28T01:49:42.017Z,931.99
2018-04-28T01:49:55.324Z,932
2018-04-28T01:50:07.875Z,931.93
2018-04-28T01:50:20.425Z,931.94
2018-04-28T01:50:32.535Z,931.9
2018-04-28T01:50:45.525Z,931.97
2018-04-28T01:50:57.611Z,931.95
2018-04-28T01:51:09.679Z,931.92
2018-04-28T01:51:22.266Z,931.94
2018-04-28T01:51:35.312Z,931.93
2018-04-28T01:51:48.332Z,931.94
2018-04-28T01:52:00.887Z,931.96
2018-04-28T01:52:13.458Z,931.92
2018-04-28T01:52:26.522Z,931.96
2018-04-28T01:52:38.597Z,931.94
2018-04-28T01:52:51.632Z,931.96
2018-04-28T01:53:04.684Z,931.94
2018-04-28T01:53:17.247Z,931.9
2018-04-28T01:53:28.420Z,931.91
2018-04-28T01:53:40.987Z,931.94
2018-04-28T01:53:53.559Z,931.99
2018-04-28T01:54:06.541Z,931.95
2018-04-28T01:54:19.071Z,931.93
2018-04-28T01:54:31.674Z,931.95
2018-04-28T01:54:44.250Z,931.97
2018-04-28T01:54:56.814Z,931.93
2018-04-28T01:55:09.408Z,931.96
2018-04-28T01:55:21.965Z,931.95
2018-04-28T01:55:35.032Z,931.93
2018-04-28T01:55:47.595Z,931.98
2018-04-28T01:56:00.115Z,931.96
2018-04-28T01:56:11.694Z,931.98
2018-04-28T01:56:24.721Z,931.96
2018-04-28T01:56:37.254Z,931.94
2018-04-28T01:56:49.821Z,931.94
2018-04-28T01:57:02.382Z,931.96
2018-04-28T01:57:15.375Z,931.96
2018-04-28T01:57:27.921Z,931.94
2018-04-28T01:57:40.520Z,931.92
2018-04-28T01:57:53.117Z,931.92
2018-04-28T01:58:05.677Z,931.89
2018-04-28T01:58:18.233Z,931.93
2018-04-28T01:58:31.252Z,931.89
2018-04-28T01:58:44.266Z,931.9
2018-04-28T01:58:56.820Z,931.92
2018-04-28T01:59:09.397Z,931.91
2018-04-28T01:59:21.961Z,931.89
2018-04-28T01:59:34.610Z,931.93
2018-04-28T01:59:46.702Z,931.92
2018-04-28T01:59:59.849Z,931.89
2018-04-28T02:00:12.423Z,931.91
2018-04-28T02:00:25.457Z,931.86
2018-04-28T02:00:38.013Z,931.92
2018-04-28T02:00:50.075Z,931.89
2018-04-28T02:01:02.655Z,931.89
2018-04-28T02:01:15.677Z,931.88
2018-04-28T02:01:28.220Z,931.88
2018-04-28T02:01:40.771Z,931.86
2018-04-28T02:01:53.801Z,931.86
2018-04-28T02:02:05.883Z,931.89
2018-04-28T02:02:17.974Z,931.91
2018-04-28T02:02:30.090Z,931.87
2018-04-28T02:02:42.663Z,931.85
2018-04-28T02:02:55.269Z,931.89
2018-04-28T02:03:08.265Z,931.84
2018-04-28T02:03:21.323Z,931.85
2018-04-28T02:03:33.426Z,931.83
2018-04-28T02:03:46.476Z,931.84
2018-04-28T02:03:59.502Z,931.83
2018-04-28T02:04:12.567Z,931.82
2018-04-28T02:04:25.184Z,931.85
2018-04-28T02:04:37.713Z,931.87
2018-04-28T02:04:49.812Z,931.85
2018-04-28T02:05:02.646Z,931.88
2018-04-28T02:05:15.208Z,931.84
2018-04-28T02:05:27.275Z,931.89
2018-04-28T02:05:39.856Z,931.82
2018-04-28T02:05:52.431Z,931.86
2018-04-28T02:06:04.499Z,931.85
2018-04-28T02:06:16.605Z,931.83
2018-04-28T02:06:29.144Z,931.85
2018-04-28T02:06:42.178Z,931.87
2018-04-28T02:06:55.214Z,931.88
2018-04-28T02:07:07.301Z,931.87
2018-04-28T02:07:19.877Z,931.83
2018-04-28T02:07:32.437Z,931.83
2018-04-28T02:07:44.559Z,931.87
2018-04-28T02:07:57.574Z,931.84
2018-04-28T02:08:10.600Z,931.84
2018-04-28T02:08:23.619Z,931.85
2018-04-28T02:08:35.719Z,931.83
2018-04-28T02:08:48.720Z,931.82
2018-04-28T02:09:01.270Z,931.86
2018-04-28T02:09:14.334Z,931.83
2018-04-28T02:09:26.917Z,931.84
2018-04-28T02:09:39.021Z,931.84
2018-04-28T02:09:51.123Z,931.83
2018-04-28T02:10:04.177Z,931.84
2018-04-28T02:10:17.182Z,931.83
2018-04-28T02:10:30.237Z,931.84
2018-04-28T02:10:43.269Z,931.82
2018-04-28T02:10:56.376Z,931.83
2018-04-28T02:11:08.447Z,931.82
2018-04-28T02:11:21.480Z,931.81
2018-04-28T02:11:34.058Z,931.84
2018-04-28T02:11:45.684Z,931.8
2018-04-28T02:11:58.689Z,931.79
2018-04-28T02:12:10.777Z,931.77
2018-04-28T02:12:22.404Z,931.82
2018-04-28T02:12:35.432Z,931.83
2018-04-28T02:12:48.459Z,931.83
2018-04-28T02:13:01.022Z,931.82
2018-04-28T02:13:14.094Z,931.84
2018-04-28T02:13:26.641Z,931.83
2018-04-28T02:13:38.719Z,931.79
2018-04-28T02:13:51.773Z,931.84
2018-04-28T02:14:04.329Z,931.82
2018-04-28T02:14:16.911Z,931.8
2018-04-28T02:14:29.968Z,931.81
2018-04-28T02:14:42.979Z,931.85
2018-04-28T02:14:56.014Z,931.86
2018-04-28T02:15:08.688Z,931.81
2018-04-28T02:15:21.209Z,931.83
2018-04-28T02:15:34.248Z,931.82
2018-04-28T02:15:47.273Z,931.86
2018-04-28T02:16:00.370Z,931.87
2018-04-28T02:16:13.400Z,931.87
2018-04-28T02:16:25.498Z,931.84
2018-04-28T02:16:38.558Z,931.85
2018-04-28T02:16:51.149Z,931.82
2018-04-28T02:17:04.161Z,931.83
2018-04-28T02:17:17.193Z,931.84
2018-04-28T02:17:30.217Z,931.85
2018-04-28T02:17:43.226Z,931.89
2018-04-28T02:17:55.762Z,931.87
2018-04-28T02:18:08.369Z,931.88
2018-04-28T02:18:21.398Z,931.85
2018-04-28T02:18:34.458Z,931.87
2018-04-28T02:18:47.457Z,931.87
2018-04-28T02:19:00.016Z,931.85
2018-04-28T02:19:12.598Z,931.85
2018-04-28T02:19:25.629Z,931.88
2018-04-28T02:19:38.711Z,931.86
2018-04-28T02:19:51.733Z,931.81
2018-04-28T02:20:04.071Z,931.85
2018-04-28T02:20:17.120Z,931.8
2018-04-28T02:20:29.681Z,931.83
2018-04-28T02:20:42.224Z,931.82
2018-04-28T02:20:54.786Z,931.81
2018-04-28T02:21:07.314Z,931.84
2018-04-28T02:21:20.380Z,931.8
2018-04-28T02:21:32.969Z,931.79
2018-04-28T02:21:45.551Z,931.81
2018-04-28T02:21:58.554Z,931.79
2018-04-28T02:22:10.636Z,931.8
2018-04-28T02:22:23.170Z,931.79
2018-04-28T02:22:35.717Z,931.79
2018-04-28T02:22:47.835Z,931.77
2018-04-28T02:23:00.424Z,931.74
2018-04-28T02:23:13.021Z,931.78
2018-04-28T02:23:25.085Z,931.8
2018-04-28T02:23:37.627Z,931.79
2018-04-28T02:23:50.162Z,931.78
2018-04-28T02:24:02.272Z,931.79
2018-04-28T02:24:14.354Z,931.77
2018-04-28T02:24:26.485Z,931.76
2018-04-28T02:24:38.546Z,931.74
2018-04-28T02:24:51.196Z,931.75
2018-04-28T02:25:03.226Z,931.77
2018-04-28T02:25:16.284Z,931.76
2018-04-28T02:25:28.868Z,931.8
2018-04-28T02:25:41.928Z,931.77
2018-04-28T02:25:54.466Z,931.76
2018-04-28T02:26:06.070Z,931.74
2018-04-28T02:26:19.106Z,931.75
2018-04-28T02:26:31.213Z,931.76
2018-04-28T02:26:43.775Z,931.77
2018-04-28T02:26:55.863Z,931.77
2018-04-28T02:27:08.466Z,931.77
2018-04-28T02:27:21.036Z,931.76
2018-04-28T02:27:34.068Z,931.79
2018-04-28T02:27:46.177Z,931.8
2018-04-28T02:27:59.180Z,931.8
2018-04-28T02:28:11.768Z,931.76
2018-04-28T02:28:24.782Z,931.79
2018-04-28T02:28:37.352Z,931.79
2018-04-28T02:28:50.384Z,931.79
2018-04-28T02:29:03.390Z,931.78
2018-04-28T02:29:16.413Z,931.78
2018-04-28T02:29:28.977Z,931.77
2018-04-28T02:29:41.965Z,931.77
2018-04-28T02:29:54.045Z,931.81
2018-04-28T02:30:06.259Z,931.77
2018-04-28T02:30:18.309Z,931.76
2018-04-28T02:30:31.363Z,931.74
2018-04-28T02:30:43.957Z,931.79
2018-04-28T02:30:56.967Z,931.79
2018-04-28T02:31:09.537Z,931.78
2018-04-28T02:31:22.220Z,931.76
2018-04-28T02:31:35.297Z,931.77
2018-04-28T02:31:48.319Z,931.8
2018-04-28T02:32:00.422Z,931.79
2018-04-28T02:32:13.022Z,931.83
2018-04-28T02:32:26.061Z,931.81
2018-04-28T02:32:38.619Z,931.83
2018-04-28T02:32:51.195Z,931.81
2018-04-28T02:33:03.782Z,931.8
2018-04-28T02:33:16.368Z,931.81
2018-04-28T02:33:28.456Z,931.82
2018-04-28T02:33:40.088Z,931.81
2018-04-28T02:33:52.657Z,931.8
2018-04-28T02:34:05.648Z,931.8
2018-04-28T02:34:17.259Z,931.8
2018-04-28T02:34:30.331Z,931.8
2018-04-28T02:34:43.366Z,931.79
2018-04-28T02:34:56.404Z,931.79
2018-04-28T02:35:09.786Z,931.8
2018-04-28T02:35:22.834Z,931.82
2018-04-28T02:35:35.880Z,931.8
2018-04-28T02:35:48.462Z,931.81
2018-04-28T02:36:01.498Z,931.8
2018-04-28T02:36:14.062Z,931.81
2018-04-28T02:36:26.171Z,931.78
2018-04-28T02:36:37.762Z,931.79
2018-04-28T02:36:50.321Z,931.81
2018-04-28T02:37:02.889Z,931.8
2018-04-28T02:37:14.983Z,931.82
2018-04-28T02:37:27.992Z,931.79
2018-04-28T02:37:41.039Z,931.78
2018-04-28T02:37:53.584Z,931.79
2018-04-28T02:38:06.176Z,931.81
2018-04-28T02:38:19.217Z,931.79
2018-04-28T02:38:32.278Z,931.78